Home > Products > Valid Products > MTR

000
SAUS44 KLZK 200954
MTRMWT
METAR KMWT 200953Z AUTO 00000KT 7SM CLR 21/21 A2995 RMK AO2 SLP127
T02110206





000
SAUS44 KLZK 200854
MTRMWT
METAR KMWT 200853Z AUTO 00000KT 6SM BR CLR 22/21 A2994 RMK AO2
SLP125 T02170206 53009





000
SAUS44 KLZK 200754
MTRMWT
METAR KMWT 200753Z AUTO 00000KT 4SM BR CLR 22/21 A2992 RMK AO2
SLP119 T02220211





000
SAUS44 KLZK 200752
MTRMWT
SPECI KMWT 200751Z AUTO 00000KT 3SM BR CLR 22/21 A2992 RMK AO2





000
SAUS44 KLZK 200742
MTRMWT
SPECI KMWT 200741Z AUTO 00000KT 2 1/2SM BR CLR 22/21 A2992 RMK AO2
T02220211





000
SAUS44 KLZK 200654
MTRMWT
METAR KMWT 200653Z AUTO 00000KT 5SM BR CLR 22/22 A2991 RMK AO2
SLP116 T02220217





000
SAUS44 KLZK 200554
MTRMWT
METAR KMWT 200553Z AUTO 00000KT 8SM CLR 23/22 A2991 RMK AO2 SLP114
T02330217 10311 20233 403390183 55001





000
SAUS44 KLZK 200454
MTRMWT
METAR KMWT 200453Z AUTO 00000KT 10SM CLR 23/22 A2991 RMK AO2 SLP114
T02330217





000
SAUS44 KLZK 200354
MTRMWT
METAR KMWT 200353Z AUTO 00000KT 10SM CLR 25/22 A2990 RMK AO2 SLP111
T02500222





000
SAUS44 KLZK 200254
MTRMWT
METAR KMWT 200253Z AUTO 00000KT 10SM CLR 26/23 A2991 RMK AO2 SLP117
T02560233 51018





000
SAUS44 KLZK 200154
MTRMWT
METAR KMWT 200153Z AUTO 00000KT 10SM CLR 28/24 A2990 RMK AO2 SLP114
T02830239





000
SAUS44 KLZK 200054
MTRMWT
METAR KMWT 200053Z AUTO 00000KT 10SM CLR 29/24 A2988 RMK AO2 SLP108
T02890244





000
SAUS44 KLZK 192354
MTRMWT
METAR KMWT 192353Z AUTO 23004KT 10SM CLR 31/24 A2986 RMK AO2 SLP099
T03110239 10339 20311 55006





000
SAUS44 KLZK 192254
MTRMWT
METAR KMWT 192253Z AUTO VRB03KT 10SM CLR 32/25 A2985 RMK AO2 SLP097
T03170250





000
SAUS44 KLZK 192154
MTRMWT
METAR KMWT 192153Z AUTO VRB04KT 10SM FEW039 33/24 A2986 RMK AO2
SLP100 T03280239





000
SAUS44 KLZK 192054
MTRMWT
METAR KMWT 192053Z AUTO VRB03KT 10SM SCT039 33/24 A2988 RMK AO2
SLP104 T03330239 57014





000
SAUS44 KLZK 191954
MTRMWT
METAR KMWT 191953Z AUTO VRB05KT 10SM FEW039 SCT050 33/24 A2989 RMK
AO2 SLP108 T03330239





000
SAUS44 KLZK 191854
MTRMWT
METAR KMWT 191853Z AUTO 00000KT 10SM CLR 33/24 A2990 RMK AO2 SLP114
T03330239





000
SAUS44 KLZK 191754
MTRMWT
METAR KMWT 191753Z AUTO 00000KT 10SM CLR 33/24 A2992 RMK AO2 SLP118
T03280239 10328 20183 58005





000
SAUS44 KLZK 191654
MTRMWT
METAR KMWT 191653Z AUTO VRB03KT 10SM CLR 31/23 A2994 RMK AO2 SLP126
T03060233





000
SAUS44 KLZK 191554
MTRMWT
METAR KMWT 191553Z AUTO 00000KT 10SM CLR 29/23 A2994 RMK AO2 SLP127
T02890228





000
SAUS44 KLZK 191454
MTRMWT
METAR KMWT 191453Z AUTO 00000KT 10SM FEW110 26/22 A2993 RMK AO2
SLP126 T02610222 51013





000
SAUS44 KLZK 191354
MTRMWT
METAR KMWT 191353Z AUTO 00000KT 10SM CLR 23/21 A2993 RMK AO2 SLP125
T02280206





000
SAUS44 KLZK 191254
MTRMWT
METAR KMWT 191253Z AUTO 00000KT 10SM CLR 21/19 A2991 RMK AO2 SLP122
T02060194





000
SAUS44 KLZK 191154
MTRMWT
METAR KMWT 191153Z AUTO 00000KT 9SM CLR 18/18 A2989 RMK AO2 SLP116
7//// T01830178 10194 20183 51006





000
SAUS44 KLZK 191054
MTRMWT
METAR KMWT 191053Z AUTO 00000KT 4SM BR CLR 19/18 A2989 RMK AO2
SLP114 T01890178





000
SAUS44 KLZK 191006
MTRMWT
SPECI KMWT 191004Z AUTO 00000KT 6SM BR FEW002 19/18 A2989 RMK AO2
T01890178





000
SAUS44 KLZK 190954
MTRMWT
METAR KMWT 190953Z AUTO 00000KT 9SM CLR 19/18 A2989 RMK AO2 SLP110
T01890183





000
SAUS44 KLZK 190854
MTRMWT
METAR KMWT 190853Z AUTO 00000KT 5SM BR CLR 19/18 A2988 RMK AO2
SLP104 T01890178 55005





000
SAUS44 KLZK 190754
MTRMWT
METAR KMWT 190753Z AUTO 00000KT 5SM BR CLR 19/18 A2987 RMK AO2
SLP101 T01890183





000
SAUS44 KLZK 190654
MTRMWT
METAR KMWT 190653Z AUTO 00000KT 8SM FEW002 19/18 A2987 RMK AO2
SLP101 T01940183





000
SAUS44 KLZK 190628
MTRMWT
SPECI KMWT 190627Z AUTO 00000KT 4SM BR SCT002 19/19 A2988 RMK AO2
T01940189





000
SAUS44 KLZK 190554
MTRMWT
METAR KMWT 190553Z AUTO 00000KT 4SM BR CLR 19/19 A2989 RMK AO2
SLP111 60002 T01940189 10217 20194 403330194 50002





000
SAUS44 KLZK 190455
MTRMWT
METAR KMWT 190453Z AUTO 00000KT 3SM BR FEW002 19/19 A2989 RMK AO2
SLP111 T01940189





000
SAUS44 KLZK 190446
MTRMWT
SPECI KMWT 190445Z AUTO 00000KT 3SM BR FEW002 20/19 A2989 RMK AO2
T02000189





000
SAUS44 KLZK 190439
MTRMWT
SPECI KMWT 190438Z AUTO 00000KT 2 1/2SM BR CLR 20/19 A2989 RMK AO2
VIS 1V5 T02000189





000
SAUS44 KLZK 190432
MTRMWT
SPECI KMWT 190431Z AUTO 00000KT 3SM BR CLR 20/19 A2989 RMK AO2
T02000189





000
SAUS44 KLZK 190420
MTRMWT
SPECI KMWT 190419Z AUTO 00000KT 1 3/4SM BR CLR 20/19 A2988 RMK AO2
VIS 3/4V5 T02000189





000
SAUS44 KLZK 190354
MTRMWT
METAR KMWT 190353Z AUTO 00000KT 6SM BR CLR 20/19 A2989 RMK AO2
SLP111 T02000194





000
SAUS44 KLZK 190254
MTRMWT
METAR KMWT 190253Z AUTO 00000KT 8SM CLR 21/19 A2988 RMK AO2 SLP108
60002 T02060194 53003





000
SAUS44 KLZK 190154
MTRMWT
METAR KMWT 190153Z AUTO 11003KT 10SM CLR 21/20 A2987 RMK AO2 SLPNO
T02060200





000
SAUS44 KLZK 190055
MTRMWT
METAR KMWT 190053Z AUTO 30004KT 10SM CLR 21/20 A2983 RMK AO2 RAE33
SLPNO P0002 T02110200





000
SAUS44 KLZK 190002
MTRMWT
SPECI KMWT 190000Z AUTO 00000KT 4SM -RA BR SCT110 22/21 A2987 RMK
AO2 PRESFR P0001 T02170206





000
SAUS44 KLZK 182355
MTRMWT
METAR KMWT 182353Z AUTO 00000KT 2 1/2SM -RA BR BKN110 22/21 A2987
RMK AO2 PRESFR SLPNO P0006 60018 T02170206 10333 20217 58001





000
SAUS44 KLZK 182352
MTRMWT
SPECI KMWT 182350Z AUTO VRB03KT 2 1/2SM RA BR BKN110 22/21 A2988 RMK
AO2 PRESFR P0005





000
SAUS44 KLZK 182255
MTRMWT
METAR KMWT 182253Z AUTO 33004KT 10SM -RA FEW012 SCT090 BKN110 22/21
A2994 RMK AO2 PK WND 31027/2159 RAB07 SLPNO P0012 T02220211





000
SAUS44 KLZK 182239
MTRMWT
SPECI KMWT 182237Z AUTO VRB03KT 3SM -RA BR SCT075 SCT090 BKN110
22/21 A2992 RMK AO2 PK WND 31027/2159 RAB07 P0012 T02220206





000
SAUS44 KLZK 182220
MTRMWT
SPECI KMWT 182218Z AUTO VRB06KT 1 3/4SM +RA BR FEW048 BKN065 OVC080
23/21 A2991 RMK AO2 PK WND 31027/2159 RAB07 P0002 T02280206





000
SAUS44 KLZK 182155
MTRMWT
METAR KMWT 182153Z AUTO 32012G20KT 10SM FEW039 SCT047 SCT060 29/21
A2988 RMK AO2 PRESRR SLPNO T02890211





000
SAUS44 KLZK 182054
MTRMWT
METAR KMWT 182053Z AUTO VRB04KT 10SM FEW045 SCT050 33/24 A2986 RMK
AO2 SLPNO T03280239 58013





000
SAUS44 KLZK 181954
MTRMWT
METAR KMWT 181953Z AUTO 10SM FEW042 32/23 A2987 RMK AO2 SLPNO
T03220233





000
SAUS44 KLZK 181854
MTRMWT
METAR KMWT 181853Z AUTO VRB03KT 10SM BKN034 31/23 A2989 RMK AO2
SLPNO T03110233





000
SAUS44 KLZK 181755
MTRMWT
METAR KMWT 181753Z AUTO 21007KT 160V310 10SM CLR 29/23 A2990 RMK AO2
SLPNO 6//// T02940233 58007





000
SAUS44 KLZK 181733
MTRMWT
SPECI KMWT 181732Z AUTO 15007KT 10SM SCT020 29/24 A2991 RMK AO2
T02940239





000
SAUS44 KLZK 181716
MTRMWT
SPECI KMWT 181715Z AUTO VRB05KT 10SM BKN020 29/23 A2991 RMK AO2
T02890233





000
SAUS44 KLZK 181654
MTRMWT
METAR KMWT 181653Z AUTO 14003KT 10SM SCT020 28/23 A2992 RMK AO2
SLPNO T02830233





000
SAUS44 KLZK 181554
MTRMWT
METAR KMWT 181553Z AUTO VRB03KT 10SM FEW019 28/23 A2993 RMK AO2
SLPNO T02780228





000
SAUS44 KLZK 181454
MTRMWT
METAR KMWT 181453Z AUTO 00000KT 10SM 28/23 A2992 RMK AO2 SLPNO 6////
T02780233





000
SAUS44 KLZK 181354
MTRMWT
METAR KMWT 181353Z AUTO RMK AO2 SLPNO PWINO PNO $





000
SAUS44 KLZK 181254
MTRMWT
METAR KMWT 181253Z AUTO 00000KT 6SM BR SCT065 23/22 A2993 RMK AO2
SLP123 T02280217 $





000
SAUS44 KLZK 181230
MTRMWT
SPECI KMWT 181229Z AUTO 00000KT 3SM BR CLR 22/22 A2992 RMK AO2
T02220217 $





    US Dept of Commerce
    National Oceanic and Atmospheric Administration
    National Weather Service
    1325 East West Highway
    Silver Spring, MD 20910
    Page Author: NWS Internet Services Team
Disclaimer
Information Quality
Credits
Glossary
Privacy Policy
Freedom of Information Act (FOIA)
About Us
Career Opportunities